sensor_id;sensor_type;location;lat;lon;timestamp;P1;durP1;ratioP1;P2;durP2;ratioP2
19004;SDS011;9635;52.078;8.648;2022-07-29T00:04:02;4.63;;;1.10;;
19004;SDS011;9635;52.078;8.648;2022-07-29T00:09:05;5.88;;;1.58;;
19004;SDS011;9635;52.078;8.648;2022-07-29T00:14:10;6.47;;;1.38;;
19004;SDS011;9635;52.078;8.648;2022-07-29T00:19:14;3.92;;;1.17;;
19004;SDS011;9635;52.078;8.648;2022-07-29T00:24:17;2.15;;;1.20;;
19004;SDS011;9635;52.078;8.648;2022-07-29T00:29:21;8.88;;;2.13;;
19004;SDS011;9635;52.078;8.648;2022-07-29T00:34:34;3.55;;;1.45;;
19004;SDS011;9635;52.078;8.648;2022-07-29T00:39:55;4.10;;;1.45;;
19004;SDS011;9635;52.078;8.648;2022-07-29T00:45:00;1.65;;;1.40;;
19004;SDS011;9635;52.078;8.648;2022-07-29T00:50:03;5.35;;;1.30;;
19004;SDS011;9635;52.078;8.648;2022-07-29T00:55:08;2.20;;;1.10;;
19004;SDS011;9635;52.078;8.648;2022-07-29T01:00:15;3.17;;;1.33;;
19004;SDS011;9635;52.078;8.648;2022-07-29T01:05:20;4.28;;;1.20;;
19004;SDS011;9635;52.078;8.648;2022-07-29T01:10:45;3.38;;;1.30;;
19004;SDS011;9635;52.078;8.648;2022-07-29T01:15:51;7.68;;;1.27;;
19004;SDS011;9635;52.078;8.648;2022-07-29T01:21:04;5.95;;;1.88;;
19004;SDS011;9635;52.078;8.648;2022-07-29T01:31:54;3.83;;;1.33;;
19004;SDS011;9635;52.078;8.648;2022-07-29T01:37:04;2.60;;;1.40;;
19004;SDS011;9635;52.078;8.648;2022-07-29T01:42:12;5.10;;;1.35;;
19004;SDS011;9635;52.078;8.648;2022-07-29T01:47:25;3.42;;;1.40;;
19004;SDS011;9635;52.078;8.648;2022-07-29T01:52:33;3.20;;;1.17;;
19004;SDS011;9635;52.078;8.648;2022-07-29T01:57:40;5.25;;;1.30;;
19004;SDS011;9635;52.078;8.648;2022-07-29T02:02:47;8.23;;;1.70;;
19004;SDS011;9635;52.078;8.648;2022-07-29T02:07:52;4.63;;;1.42;;
19004;SDS011;9635;52.078;8.648;2022-07-29T02:12:57;1.85;;;1.15;;
19004;SDS011;9635;52.078;8.648;2022-07-29T02:18:04;5.07;;;1.58;;
19004;SDS011;9635;52.078;8.648;2022-07-29T02:23:10;5.18;;;1.60;;
19004;SDS011;9635;52.078;8.648;2022-07-29T02:28:15;4.72;;;1.33;;
19004;SDS011;9635;52.078;8.648;2022-07-29T02:33:21;2.45;;;1.30;;
19004;SDS011;9635;52.078;8.648;2022-07-29T02:38:25;2.65;;;1.55;;
19004;SDS011;9635;52.078;8.648;2022-07-29T02:43:48;2.85;;;1.02;;
19004;SDS011;9635;52.078;8.648;2022-07-29T02:48:59;5.05;;;1.50;;
19004;SDS011;9635;52.078;8.648;2022-07-29T02:54:07;2.55;;;1.23;;
19004;SDS011;9635;52.078;8.648;2022-07-29T02:59:13;2.58;;;1.25;;
19004;SDS011;9635;52.078;8.648;2022-07-29T03:04:20;5.13;;;1.58;;
19004;SDS011;9635;52.078;8.648;2022-07-29T03:09:27;1.83;;;1.33;;
19004;SDS011;9635;52.078;8.648;2022-07-29T03:14:31;4.15;;;1.20;;
19004;SDS011;9635;52.078;8.648;2022-07-29T03:19:36;3.05;;;1.40;;
19004;SDS011;9635;52.078;8.648;2022-07-29T03:24:41;3.15;;;1.67;;
19004;SDS011;9635;52.078;8.648;2022-07-29T03:29:44;2.15;;;1.52;;
19004;SDS011;9635;52.078;8.648;2022-07-29T03:34:52;6.22;;;1.48;;
19004;SDS011;9635;52.078;8.648;2022-07-29T03:39:55;4.43;;;1.55;;
19004;SDS011;9635;52.078;8.648;2022-07-29T03:45:00;3.80;;;1.42;;
19004;SDS011;9635;52.078;8.648;2022-07-29T03:50:10;5.03;;;1.33;;
19004;SDS011;9635;52.078;8.648;2022-07-29T03:55:17;3.55;;;1.40;;
19004;SDS011;9635;52.078;8.648;2022-07-29T04:00:20;4.35;;;1.60;;
19004;SDS011;9635;52.078;8.648;2022-07-29T04:05:25;2.35;;;1.30;;
19004;SDS011;9635;52.078;8.648;2022-07-29T04:10:28;3.38;;;1.23;;
19004;SDS011;9635;52.078;8.648;2022-07-29T04:15:34;4.70;;;1.50;;
19004;SDS011;9635;52.078;8.648;2022-07-29T04:20:38;1.73;;;1.17;;
19004;SDS011;9635;52.078;8.648;2022-07-29T04:25:42;3.10;;;1.50;;
19004;SDS011;9635;52.078;8.648;2022-07-29T04:30:45;3.53;;;1.50;;
19004;SDS011;9635;52.078;8.648;2022-07-29T04:35:49;2.55;;;1.52;;
19004;SDS011;9635;52.078;8.648;2022-07-29T04:40:55;5.75;;;1.88;;
19004;SDS011;9635;52.078;8.648;2022-07-29T04:45:58;4.90;;;1.90;;
19004;SDS011;9635;52.078;8.648;2022-07-29T04:51:03;3.95;;;1.73;;
19004;SDS011;9635;52.078;8.648;2022-07-29T04:56:06;4.07;;;1.65;;
19004;SDS011;9635;52.078;8.648;2022-07-29T05:01:09;9.25;;;1.65;;
19004;SDS011;9635;52.078;8.648;2022-07-29T05:06:13;5.93;;;1.35;;
19004;SDS011;9635;52.078;8.648;2022-07-29T05:11:16;4.65;;;1.83;;
19004;SDS011;9635;52.078;8.648;2022-07-29T05:16:23;6.60;;;2.30;;
19004;SDS011;9635;52.078;8.648;2022-07-29T05:21:27;4.75;;;1.77;;
19004;SDS011;9635;52.078;8.648;2022-07-29T05:26:30;2.35;;;1.15;;
19004;SDS011;9635;52.078;8.648;2022-07-29T05:31:33;4.05;;;1.70;;
19004;SDS011;9635;52.078;8.648;2022-07-29T05:36:37;5.00;;;1.83;;
19004;SDS011;9635;52.078;8.648;2022-07-29T05:41:40;4.80;;;1.23;;
19004;SDS011;9635;52.078;8.648;2022-07-29T05:46:43;5.78;;;2.55;;
19004;SDS011;9635;52.078;8.648;2022-07-29T05:51:47;2.30;;;1.40;;
19004;SDS011;9635;52.078;8.648;2022-07-29T05:56:50;7.10;;;1.60;;
19004;SDS011;9635;52.078;8.648;2022-07-29T06:01:53;3.47;;;2.10;;
19004;SDS011;9635;52.078;8.648;2022-07-29T06:06:57;7.05;;;1.80;;
19004;SDS011;9635;52.078;8.648;2022-07-29T06:12:00;3.40;;;1.50;;
19004;SDS011;9635;52.078;8.648;2022-07-29T06:17:04;4.47;;;2.60;;
19004;SDS011;9635;52.078;8.648;2022-07-29T06:22:14;4.57;;;1.80;;
19004;SDS011;9635;52.078;8.648;2022-07-29T06:27:17;3.78;;;1.75;;
19004;SDS011;9635;52.078;8.648;2022-07-29T06:32:20;2.95;;;1.30;;
19004;SDS011;9635;52.078;8.648;2022-07-29T06:37:29;4.55;;;1.52;;
19004;SDS011;9635;52.078;8.648;2022-07-29T06:42:34;6.18;;;1.65;;
19004;SDS011;9635;52.078;8.648;2022-07-29T06:47:37;5.45;;;1.55;;
19004;SDS011;9635;52.078;8.648;2022-07-29T06:52:41;7.40;;;1.75;;
19004;SDS011;9635;52.078;8.648;2022-07-29T06:57:44;4.82;;;1.50;;
19004;SDS011;9635;52.078;8.648;2022-07-29T07:02:51;3.92;;;2.00;;
19004;SDS011;9635;52.078;8.648;2022-07-29T07:07:56;7.35;;;2.17;;
19004;SDS011;9635;52.078;8.648;2022-07-29T07:12:58;6.35;;;1.70;;
19004;SDS011;9635;52.078;8.648;2022-07-29T07:18:01;5.78;;;1.90;;
19004;SDS011;9635;52.078;8.648;2022-07-29T07:23:06;7.97;;;1.98;;
19004;SDS011;9635;52.078;8.648;2022-07-29T07:28:09;5.95;;;1.60;;
19004;SDS011;9635;52.078;8.648;2022-07-29T07:33:12;8.88;;;2.50;;
19004;SDS011;9635;52.078;8.648;2022-07-29T07:38:18;5.32;;;1.73;;
19004;SDS011;9635;52.078;8.648;2022-07-29T07:43:21;6.95;;;1.65;;
19004;SDS011;9635;52.078;8.648;2022-07-29T07:48:24;2.33;;;1.40;;
19004;SDS011;9635;52.078;8.648;2022-07-29T07:53:28;5.15;;;1.50;;
19004;SDS011;9635;52.078;8.648;2022-07-29T07:58:32;7.50;;;1.60;;
19004;SDS011;9635;52.078;8.648;2022-07-29T08:03:36;3.30;;;1.38;;
19004;SDS011;9635;52.078;8.648;2022-07-29T08:08:41;4.25;;;1.50;;
19004;SDS011;9635;52.078;8.648;2022-07-29T08:13:44;5.65;;;1.63;;
19004;SDS011;9635;52.078;8.648;2022-07-29T08:18:48;4.95;;;1.30;;
19004;SDS011;9635;52.078;8.648;2022-07-29T08:23:52;2.95;;;1.05;;
19004;SDS011;9635;52.078;8.648;2022-07-29T08:29:15;4.25;;;1.10;;
19004;SDS011;9635;52.078;8.648;2022-07-29T08:34:20;3.63;;;1.45;;
19004;SDS011;9635;52.078;8.648;2022-07-29T08:39:29;5.45;;;1.23;;
19004;SDS011;9635;52.078;8.648;2022-07-29T08:44:32;3.22;;;1.30;;
19004;SDS011;9635;52.078;8.648;2022-07-29T08:49:37;11.18;;;1.77;;
19004;SDS011;9635;52.078;8.648;2022-07-29T08:54:42;6.70;;;1.50;;
19004;SDS011;9635;52.078;8.648;2022-07-29T08:59:46;8.93;;;1.42;;
19004;SDS011;9635;52.078;8.648;2022-07-29T09:04:53;4.63;;;1.70;;
19004;SDS011;9635;52.078;8.648;2022-07-29T09:09:58;4.65;;;2.03;;
19004;SDS011;9635;52.078;8.648;2022-07-29T09:15:02;7.00;;;1.60;;
19004;SDS011;9635;52.078;8.648;2022-07-29T09:25:37;5.35;;;1.42;;
19004;SDS011;9635;52.078;8.648;2022-07-29T09:30:49;5.93;;;2.13;;
19004;SDS011;9635;52.078;8.648;2022-07-29T09:41:00;5.75;;;1.42;;
19004;SDS011;9635;52.078;8.648;2022-07-29T09:46:10;3.60;;;1.55;;
19004;SDS011;9635;52.078;8.648;2022-07-29T09:51:17;4.63;;;1.92;;
19004;SDS011;9635;52.078;8.648;2022-07-29T09:56:39;8.73;;;2.17;;
19004;SDS011;9635;52.078;8.648;2022-07-29T10:01:43;7.05;;;2.45;;
19004;SDS011;9635;52.078;8.648;2022-07-29T10:12:09;8.65;;;2.78;;
19004;SDS011;9635;52.078;8.648;2022-07-29T10:17:14;4.78;;;2.78;;
19004;SDS011;9635;52.078;8.648;2022-07-29T10:22:18;4.45;;;2.33;;
19004;SDS011;9635;52.078;8.648;2022-07-29T10:27:43;3.58;;;2.67;;
19004;SDS011;9635;52.078;8.648;2022-07-29T10:33:07;3.58;;;3.10;;
19004;SDS011;9635;52.078;8.648;2022-07-29T10:38:30;7.93;;;3.30;;
19004;SDS011;9635;52.078;8.648;2022-07-29T10:44:06;4.25;;;2.40;;
19004;SDS011;9635;52.078;8.648;2022-07-29T10:49:19;7.90;;;3.38;;
19004;SDS011;9635;52.078;8.648;2022-07-29T10:54:42;5.00;;;3.15;;
19004;SDS011;9635;52.078;8.648;2022-07-29T10:59:49;5.28;;;2.38;;
19004;SDS011;9635;52.078;8.648;2022-07-29T11:05:00;6.63;;;2.50;;
19004;SDS011;9635;52.078;8.648;2022-07-29T11:10:19;4.68;;;2.83;;
19004;SDS011;9635;52.078;8.648;2022-07-29T11:15:51;4.80;;;2.65;;
19004;SDS011;9635;52.078;8.648;2022-07-29T11:20:55;3.88;;;2.85;;
19004;SDS011;9635;52.078;8.648;2022-07-29T11:31:31;10.52;;;2.83;;
19004;SDS011;9635;52.078;8.648;2022-07-29T11:36:35;3.90;;;2.35;;
19004;SDS011;9635;52.078;8.648;2022-07-29T11:48:01;6.68;;;2.97;;
19004;SDS011;9635;52.078;8.648;2022-07-29T11:53:23;5.40;;;2.70;;
19004;SDS011;9635;52.078;8.648;2022-07-29T11:58:33;4.45;;;1.95;;
19004;SDS011;9635;52.078;8.648;2022-07-29T12:03:39;5.78;;;3.05;;
19004;SDS011;9635;52.078;8.648;2022-07-29T12:08:45;6.30;;;2.58;;
19004;SDS011;9635;52.078;8.648;2022-07-29T12:13:48;5.30;;;2.22;;
19004;SDS011;9635;52.078;8.648;2022-07-29T12:18:56;6.68;;;2.67;;
19004;SDS011;9635;52.078;8.648;2022-07-29T12:24:00;9.95;;;2.83;;
19004;SDS011;9635;52.078;8.648;2022-07-29T12:29:14;3.45;;;2.80;;
19004;SDS011;9635;52.078;8.648;2022-07-29T12:34:36;9.15;;;3.10;;
19004;SDS011;9635;52.078;8.648;2022-07-29T12:39:39;6.32;;;3.00;;
19004;SDS011;9635;52.078;8.648;2022-07-29T12:44:43;5.80;;;2.75;;
19004;SDS011;9635;52.078;8.648;2022-07-29T12:49:49;3.08;;;2.58;;
19004;SDS011;9635;52.078;8.648;2022-07-29T12:54:52;8.02;;;3.00;;
19004;SDS011;9635;52.078;8.648;2022-07-29T12:59:59;6.22;;;2.90;;
19004;SDS011;9635;52.078;8.648;2022-07-29T13:05:12;6.97;;;2.60;;
19004;SDS011;9635;52.078;8.648;2022-07-29T13:10:16;6.28;;;2.67;;
19004;SDS011;9635;52.078;8.648;2022-07-29T13:15:25;7.35;;;3.05;;
19004;SDS011;9635;52.078;8.648;2022-07-29T13:20:29;4.20;;;2.35;;
19004;SDS011;9635;52.078;8.648;2022-07-29T13:25:32;6.68;;;2.83;;
19004;SDS011;9635;52.078;8.648;2022-07-29T13:30:35;6.10;;;2.70;;
19004;SDS011;9635;52.078;8.648;2022-07-29T13:35:46;4.57;;;2.25;;
19004;SDS011;9635;52.078;8.648;2022-07-29T13:40:49;5.28;;;2.30;;
19004;SDS011;9635;52.078;8.648;2022-07-29T13:45:52;5.50;;;2.40;;
19004;SDS011;9635;52.078;8.648;2022-07-29T13:50:57;6.07;;;2.03;;
19004;SDS011;9635;52.078;8.648;2022-07-29T13:56:00;9.80;;;2.22;;
19004;SDS011;9635;52.078;8.648;2022-07-29T14:01:03;3.22;;;1.90;;
19004;SDS011;9635;52.078;8.648;2022-07-29T14:06:07;4.20;;;2.55;;
19004;SDS011;9635;52.078;8.648;2022-07-29T14:11:10;4.63;;;2.30;;
19004;SDS011;9635;52.078;8.648;2022-07-29T14:16:13;11.20;;;2.70;;
19004;SDS011;9635;52.078;8.648;2022-07-29T14:21:17;6.65;;;2.40;;
19004;SDS011;9635;52.078;8.648;2022-07-29T14:26:20;7.07;;;2.83;;
19004;SDS011;9635;52.078;8.648;2022-07-29T14:31:24;5.00;;;2.60;;
19004;SDS011;9635;52.078;8.648;2022-07-29T14:36:28;7.95;;;2.42;;
19004;SDS011;9635;52.078;8.648;2022-07-29T14:41:31;6.68;;;2.22;;
19004;SDS011;9635;52.078;8.648;2022-07-29T14:46:34;6.43;;;2.20;;
19004;SDS011;9635;52.078;8.648;2022-07-29T14:51:39;6.32;;;2.53;;
19004;SDS011;9635;52.078;8.648;2022-07-29T14:56:41;4.85;;;2.60;;
19004;SDS011;9635;52.078;8.648;2022-07-29T15:01:47;6.82;;;2.08;;
19004;SDS011;9635;52.078;8.648;2022-07-29T15:06:52;10.20;;;2.78;;
19004;SDS011;9635;52.078;8.648;2022-07-29T15:11:56;10.77;;;2.80;;
19004;SDS011;9635;52.078;8.648;2022-07-29T15:17:00;6.85;;;2.90;;
19004;SDS011;9635;52.078;8.648;2022-07-29T15:22:06;6.93;;;2.60;;
19004;SDS011;9635;52.078;8.648;2022-07-29T15:27:09;8.00;;;2.65;;
19004;SDS011;9635;52.078;8.648;2022-07-29T15:32:15;21.30;;;4.60;;
19004;SDS011;9635;52.078;8.648;2022-07-29T15:37:19;7.35;;;2.58;;
19004;SDS011;9635;52.078;8.648;2022-07-29T15:42:22;10.68;;;3.45;;
19004;SDS011;9635;52.078;8.648;2022-07-29T15:47:25;13.38;;;3.20;;
19004;SDS011;9635;52.078;8.648;2022-07-29T15:52:29;7.65;;;2.80;;
19004;SDS011;9635;52.078;8.648;2022-07-29T15:57:32;8.23;;;2.97;;
19004;SDS011;9635;52.078;8.648;2022-07-29T16:02:35;8.85;;;3.05;;
19004;SDS011;9635;52.078;8.648;2022-07-29T16:07:39;10.57;;;3.17;;
19004;SDS011;9635;52.078;8.648;2022-07-29T16:12:42;14.27;;;3.47;;
19004;SDS011;9635;52.078;8.648;2022-07-29T16:17:45;13.07;;;3.30;;
19004;SDS011;9635;52.078;8.648;2022-07-29T16:22:49;5.88;;;3.03;;
19004;SDS011;9635;52.078;8.648;2022-07-29T16:27:52;7.97;;;3.00;;
19004;SDS011;9635;52.078;8.648;2022-07-29T16:33:00;9.27;;;3.35;;
19004;SDS011;9635;52.078;8.648;2022-07-29T16:38:09;12.15;;;3.55;;
19004;SDS011;9635;52.078;8.648;2022-07-29T16:43:12;9.18;;;3.10;;
19004;SDS011;9635;52.078;8.648;2022-07-29T16:48:15;12.20;;;3.33;;
19004;SDS011;9635;52.078;8.648;2022-07-29T16:53:20;8.45;;;3.55;;
19004;SDS011;9635;52.078;8.648;2022-07-29T16:58:28;8.88;;;3.25;;
19004;SDS011;9635;52.078;8.648;2022-07-29T17:03:31;6.53;;;3.20;;
19004;SDS011;9635;52.078;8.648;2022-07-29T17:08:35;7.57;;;3.08;;
19004;SDS011;9635;52.078;8.648;2022-07-29T17:13:38;8.20;;;3.38;;
19004;SDS011;9635;52.078;8.648;2022-07-29T17:18:41;9.68;;;3.38;;
19004;SDS011;9635;52.078;8.648;2022-07-29T17:23:45;10.63;;;3.42;;
19004;SDS011;9635;52.078;8.648;2022-07-29T17:28:48;10.25;;;2.85;;
19004;SDS011;9635;52.078;8.648;2022-07-29T17:33:51;9.20;;;3.20;;
19004;SDS011;9635;52.078;8.648;2022-07-29T17:39:03;8.40;;;3.38;;
19004;SDS011;9635;52.078;8.648;2022-07-29T17:44:07;8.73;;;3.60;;
19004;SDS011;9635;52.078;8.648;2022-07-29T17:49:10;7.65;;;3.80;;
19004;SDS011;9635;52.078;8.648;2022-07-29T17:54:15;7.00;;;4.50;;
19004;SDS011;9635;52.078;8.648;2022-07-29T17:59:17;8.50;;;4.53;;
19004;SDS011;9635;52.078;8.648;2022-07-29T18:04:21;9.13;;;3.95;;
19004;SDS011;9635;52.078;8.648;2022-07-29T18:09:25;15.13;;;4.93;;
19004;SDS011;9635;52.078;8.648;2022-07-29T18:14:28;8.63;;;4.18;;
19004;SDS011;9635;52.078;8.648;2022-07-29T18:19:31;7.45;;;4.40;;
19004;SDS011;9635;52.078;8.648;2022-07-29T18:24:35;8.77;;;4.65;;
19004;SDS011;9635;52.078;8.648;2022-07-29T18:29:38;9.63;;;5.25;;
19004;SDS011;9635;52.078;8.648;2022-07-29T18:34:41;9.80;;;4.85;;
19004;SDS011;9635;52.078;8.648;2022-07-29T18:39:47;8.27;;;4.57;;
19004;SDS011;9635;52.078;8.648;2022-07-29T18:44:49;9.65;;;5.70;;
19004;SDS011;9635;52.078;8.648;2022-07-29T18:49:52;9.90;;;5.90;;
19004;SDS011;9635;52.078;8.648;2022-07-29T18:54:57;7.22;;;5.07;;
19004;SDS011;9635;52.078;8.648;2022-07-29T19:00:00;10.57;;;6.32;;
19004;SDS011;9635;52.078;8.648;2022-07-29T19:05:04;10.40;;;6.15;;
19004;SDS011;9635;52.078;8.648;2022-07-29T19:10:09;7.25;;;6.28;;
19004;SDS011;9635;52.078;8.648;2022-07-29T19:15:12;12.77;;;6.85;;
19004;SDS011;9635;52.078;8.648;2022-07-29T19:20:21;11.70;;;7.28;;
19004;SDS011;9635;52.078;8.648;2022-07-29T19:25:25;10.48;;;7.60;;
19004;SDS011;9635;52.078;8.648;2022-07-29T19:30:28;12.43;;;7.05;;
19004;SDS011;9635;52.078;8.648;2022-07-29T19:35:31;11.63;;;7.55;;
19004;SDS011;9635;52.078;8.648;2022-07-29T19:40:35;16.10;;;10.70;;
19004;SDS011;9635;52.078;8.648;2022-07-29T19:45:39;15.90;;;9.30;;
19004;SDS011;9635;52.078;8.648;2022-07-29T19:56:21;11.38;;;8.02;;
19004;SDS011;9635;52.078;8.648;2022-07-29T20:01:26;12.45;;;7.57;;
19004;SDS011;9635;52.078;8.648;2022-07-29T20:06:29;9.10;;;7.78;;
19004;SDS011;9635;52.078;8.648;2022-07-29T20:11:33;12.18;;;7.93;;
19004;SDS011;9635;52.078;8.648;2022-07-29T20:16:37;10.48;;;9.00;;
19004;SDS011;9635;52.078;8.648;2022-07-29T20:21:40;15.18;;;9.63;;
19004;SDS011;9635;52.078;8.648;2022-07-29T20:26:44;10.10;;;9.07;;
19004;SDS011;9635;52.078;8.648;2022-07-29T20:31:47;14.65;;;9.35;;
19004;SDS011;9635;52.078;8.648;2022-07-29T20:36:56;14.65;;;8.73;;
19004;SDS011;9635;52.078;8.648;2022-07-29T20:42:02;13.60;;;8.63;;
19004;SDS011;9635;52.078;8.648;2022-07-29T20:47:06;13.63;;;9.82;;
19004;SDS011;9635;52.078;8.648;2022-07-29T20:52:08;8.57;;;7.57;;
19004;SDS011;9635;52.078;8.648;2022-07-29T20:57:13;14.10;;;9.38;;
19004;SDS011;9635;52.078;8.648;2022-07-29T21:02:16;10.10;;;8.55;;
19004;SDS011;9635;52.078;8.648;2022-07-29T21:07:18;18.95;;;9.48;;
19004;SDS011;9635;52.078;8.648;2022-07-29T21:12:23;13.18;;;9.20;;
19004;SDS011;9635;52.078;8.648;2022-07-29T21:17:26;11.48;;;8.40;;
19004;SDS011;9635;52.078;8.648;2022-07-29T21:22:28;11.98;;;9.45;;
19004;SDS011;9635;52.078;8.648;2022-07-29T21:27:33;10.85;;;8.60;;
19004;SDS011;9635;52.078;8.648;2022-07-29T21:32:53;12.40;;;8.50;;
19004;SDS011;9635;52.078;8.648;2022-07-29T21:37:56;12.25;;;8.60;;
19004;SDS011;9635;52.078;8.648;2022-07-29T21:43:00;11.75;;;8.13;;
19004;SDS011;9635;52.078;8.648;2022-07-29T21:48:03;9.98;;;7.82;;
19004;SDS011;9635;52.078;8.648;2022-07-29T21:53:06;12.88;;;8.75;;
19004;SDS011;9635;52.078;8.648;2022-07-29T21:58:16;11.25;;;9.05;;
19004;SDS011;9635;52.078;8.648;2022-07-29T22:03:19;13.07;;;9.85;;
19004;SDS011;9635;52.078;8.648;2022-07-29T22:08:22;9.95;;;8.95;;
19004;SDS011;9635;52.078;8.648;2022-07-29T22:13:26;17.67;;;10.20;;
19004;SDS011;9635;52.078;8.648;2022-07-29T22:18:29;12.32;;;9.35;;
19004;SDS011;9635;52.078;8.648;2022-07-29T22:23:32;10.80;;;9.35;;
19004;SDS011;9635;52.078;8.648;2022-07-29T22:28:36;12.32;;;10.23;;
19004;SDS011;9635;52.078;8.648;2022-07-29T22:33:40;17.48;;;10.35;;
19004;SDS011;9635;52.078;8.648;2022-07-29T22:38:43;13.02;;;10.82;;
19004;SDS011;9635;52.078;8.648;2022-07-29T22:43:53;12.63;;;10.52;;
19004;SDS011;9635;52.078;8.648;2022-07-29T22:48:56;16.63;;;11.50;;
19004;SDS011;9635;52.078;8.648;2022-07-29T22:53:59;16.23;;;10.95;;
19004;SDS011;9635;52.078;8.648;2022-07-29T22:59:03;15.63;;;11.57;;
19004;SDS011;9635;52.078;8.648;2022-07-29T23:04:06;13.60;;;12.20;;
19004;SDS011;9635;52.078;8.648;2022-07-29T23:09:09;18.75;;;13.48;;
19004;SDS011;9635;52.078;8.648;2022-07-29T23:14:13;17.73;;;13.75;;
19004;SDS011;9635;52.078;8.648;2022-07-29T23:19:16;14.80;;;11.20;;
19004;SDS011;9635;52.078;8.648;2022-07-29T23:24:19;14.82;;;13.30;;
19004;SDS011;9635;52.078;8.648;2022-07-29T23:29:24;19.27;;;13.80;;
19004;SDS011;9635;52.078;8.648;2022-07-29T23:34:27;16.02;;;12.18;;
19004;SDS011;9635;52.078;8.648;2022-07-29T23:39:29;14.48;;;12.48;;
19004;SDS011;9635;52.078;8.648;2022-07-29T23:44:34;14.60;;;12.02;;
19004;SDS011;9635;52.078;8.648;2022-07-29T23:49:36;14.60;;;11.73;;
19004;SDS011;9635;52.078;8.648;2022-07-29T23:54:39;14.30;;;12.75;;
19004;SDS011;9635;52.078;8.648;2022-07-29T23:59:43;17.02;;;13.32;;
